| time (UTC) | temp C | wind direction | speed KPH | gust KPH | rain 1hr cm | rain 24hr cm | rain mn cm | humidity % | barometer mb |
| 20260906221531 | 37 | 112 | 12.9 | 20.9 | 0.00 | 0.00 | 0.00 | 37 | 1002.4 |
| 20260906220028 | 37 | 123 | 14.5 | 20.9 | 0.00 | 0.00 | 0.00 | 37 | 1002.6 |
| 20260906214519 | 37 | 101 | 14.5 | 30.6 | 0.00 | 0.00 | 0.00 | 36 | 1002.7 |
| 20260906213017 | 37 | 139 | 8.0 | 24.1 | 0.00 | 0.00 | 0.00 | 36 | 1002.8 |
| 20260906211513 | 37 | 106 | 17.7 | 27.4 | 0.00 | 0.00 | 0.00 | 36 | 1003.1 |
| 20260906210113 | 37 | 108 | 11.3 | 29.0 | 0.00 | 0.00 | 0.00 | 39 | 1003.2 |
| 20260906204603 | 37 | 100 | 4.8 | 22.5 | 0.00 | 0.00 | 0.00 | 39 | 1003.3 |
| 20260906203101 | 36 | 89 | 9.7 | 29.0 | 0.00 | 0.00 | 0.00 | 38 | 1003.4 |
| 20260906201634 | 36 | 90 | 0.0 | 22.5 | 0.00 | 0.00 | 0.00 | 40 | 1003.5 |
| 20260906200036 | 36 | 120 | 8.0 | 16.1 | 0.00 | 0.00 | 0.00 | 40 | 1003.8 |
| 20260906194543 | 37 | 43 | 8.0 | 24.1 | 0.00 | 0.00 | 0.00 | 39 | 1003.8 |
| 20260906193041 | 37 | 169 | 9.7 | 17.7 | 0.00 | 0.00 | 0.00 | 38 | 1004.0 |
| 20260906191540 | 36 | 110 | 6.4 | 12.9 | 0.00 | 0.00 | 0.00 | 42 | 1004.2 |
| 20260906190018 | 36 | 106 | 9.7 | 17.7 | 0.00 | 0.00 | 0.00 | 41 | 1004.4 |
| 20260906184516 | 36 | 133 | 6.4 | 19.3 | 0.00 | 0.00 | 0.00 | 43 | 1004.5 |
| 20260906183025 | 36 | 166 | 8.0 | 19.3 | 0.00 | 0.00 | 0.00 | 41 | 1004.5 |
| 20260906181546 | 36 | 149 | 12.9 | 22.5 | 0.00 | 0.00 | 0.00 | 41 | 1004.9 |
| 20260906180003 | 36 | 145 | 6.4 | 17.7 | 0.00 | 0.00 | 0.00 | 42 | 1005.1 |
| 20260906174612 | 36 | 70 | 1.6 | 22.5 | 0.00 | 0.00 | 0.00 | 43 | 1005.3 |
| 20260906173007 | 35 | 175 | 4.8 | 22.5 | 0.00 | 0.00 | 0.00 | 45 | 1005.8 |
| 20260906171509 | 35 | 130 | 3.2 | 16.1 | 0.00 | 0.00 | 0.00 | 46 | 1006.0 |
| 20260906170053 | 35 | 96 | 17.7 | 25.7 | 0.00 | 0.00 | 0.00 | 45 | 1006.2 |
| 20260906164557 | 35 | 49 | 3.2 | 14.5 | 0.00 | 0.00 | 0.00 | 42 | 1006.2 |
| 20260906163101 | 34 | 73 | 8.0 | 22.5 | 0.00 | 0.00 | 0.00 | 48 | 1006.3 |
| 20260906161601 | 34 | 98 | 3.2 | 16.1 | 0.00 | 0.00 | 0.00 | 49 | 1006.2 |
| 20260906160036 | 34 | 129 | 4.8 | 9.7 | 0.00 | 0.00 | 0.00 | 48 | 1006.1 |
| 20260906154530 | 33 | 84 | 1.6 | 9.7 | 0.00 | 0.00 | 0.00 | 53 | 1006.2 |
| 20260906153028 | 32 | 141 | 1.6 | 4.8 | 0.00 | 0.00 | 0.00 | 55 | 1006.3 |
| 20260906151526 | 32 | 333 | 0.0 | 3.2 | 0.00 | 0.00 | 0.00 | 56 | 1006.2 |
| 20260906150013 | 31 | 226 | 3.2 | 6.4 | 0.00 | 0.00 | 0.00 | 59 | 1006.2 |
| 20260906144518 | 31 | 258 | 1.6 | 6.4 | 0.00 | 0.00 | 0.00 | 60 | 1006.2 |
| 20260906143015 | 30 | 160 | 0.0 | 3.2 | 0.00 | 0.00 | 0.00 | 62 | 1006.2 |
| 20260906141513 | 30 | 148 | 0.0 | 3.2 | 0.00 | 0.00 | 0.00 | 63 | 1006.2 |
| 20260906140108 | 28 | 95 | 0.0 | 6.4 | 0.00 | 0.00 | 0.00 | 67 | 1006.1 |
| 20260906134502 | 27 | 134 | 0.0 | 3.2 | 0.00 | 0.00 | 0.00 | 71 | 1006.1 |
| 20260906133004 | 26 | 67 | 0.0 | 1.6 | 0.00 | 0.00 | 0.00 | 74 | 1006.1 |
| 20260906131509 | 25 | 6 | 0.0 | 3.2 | 0.00 | 0.00 | 0.00 | 79 | 1006.1 |
| 20260906130108 | 23 | 4 | 1.6 | 3.2 | 0.00 | 0.00 | 0.00 | 81 | 1006.0 |
| 20260906124554 | 22 | 10 | 0.0 | 0.0 | 0.00 | 0.00 | 0.00 | 83 | 1005.8 |
| 20260906123052 | 22 | 11 | 0.0 | 0.0 | 0.00 | 0.00 | 0.00 | 84 | 1005.7 |
| 20260906121606 | 22 | 10 | 0.0 | 0.0 | 0.00 | 0.00 | 0.00 | 85 | 1005.6 |
| 20260906120030 | 22 | 10 | 0.0 | 0.0 | 0.00 | 0.00 | 0.00 | 84 | 1005.3 |
| 20260906114542 | 22 | 11 | 0.0 | 0.0 | 0.00 | 0.00 | 0.00 | 84 | 1005.1 |
| 20260906113046 | 22 | 10 | 0.0 | 0.0 | 0.00 | 0.00 | 0.00 | 84 | 1005.0 |
| 20260906111540 | 22 | 10 | 0.0 | 0.0 | 0.00 | 0.00 | 0.00 | 83 | 1005.0 |
| 20260906110025 | 22 | 10 | 0.0 | 0.0 | 0.00 | 0.00 | 0.00 | 82 | 1005.0 |
| 20260906104529 | 22 | 10 | 1.6 | 3.2 | 0.00 | 0.00 | 0.00 | 83 | 1004.9 |
| 20260906103030 | 22 | 343 | 0.0 | 1.6 | 0.00 | 0.00 | 0.00 | 82 | 1004.8 |
| 20260906101541 | 22 | 343 | 0.0 | 0.0 | 0.00 | 0.00 | 0.00 | 81 | 1004.8 |
| 20260906100030 | 22 | 343 | 0.0 | 3.2 | 0.00 | 0.00 | 0.00 | 81 | 1004.8 |
| 20260906094521 | 23 | 6 | 0.0 | 0.0 | 0.00 | 0.00 | 0.00 | 80 | 1004.9 |
| 20260906093022 | 23 | 6 | 0.0 | 0.0 | 0.00 | 0.00 | 0.00 | 79 | 1004.7 |
| 20260906091524 | 23 | 6 | 0.0 | 0.0 | 0.00 | 0.00 | 0.00 | 78 | 1004.5 |
| 20260906090112 | 24 | 6 | 0.0 | 0.0 | 0.00 | 0.00 | 0.00 | 77 | 1004.5 |
| 20260906084502 | 24 | 6 | 1.6 | 3.2 | 0.00 | 0.00 | 0.00 | 77 | 1004.4 |
| 20260906083010 | 24 | 358 | 0.0 | 1.6 | 0.00 | 0.00 | 0.00 | 76 | 1004.2 |
| 20260906081505 | 25 | 359 | 0.0 | 0.0 | 0.00 | 0.00 | 0.00 | 75 | 1004.1 |
| 20260906080103 | 25 | 357 | 0.0 | 1.6 | 0.00 | 0.00 | 0.00 | 74 | 1004.1 |
| 20260906074554 | 25 | 153 | 0.0 | 1.6 | 0.00 | 0.00 | 0.00 | 73 | 1004.1 |
| 20260906073057 | 26 | 162 | 0.0 | 0.0 | 0.00 | 0.00 | 0.00 | 72 | 1004.1 |
| 20260906071549 | 26 | 160 | 0.0 | 0.0 | 0.00 | 0.00 | 0.00 | 69 | 1004.4 |
| 20260906070045 | 27 | 160 | 0.0 | 1.6 | 0.00 | 0.00 | 0.00 | 67 | 1004.5 |
| 20260906064542 | 28 | 125 | 0.0 | 3.2 | 0.00 | 0.00 | 0.00 | 66 | 1004.5 |
| 20260906063044 | 28 | 143 | 0.0 | 8.0 | 0.00 | 0.00 | 0.00 | 65 | 1004.6 |
| 20260906061543 | 28 | 161 | 1.6 | 8.0 | 0.00 | 0.00 | 0.00 | 64 | 1004.6 |
| 20260906060024 | 28 | 228 | 3.2 | 9.7 | 0.00 | 0.00 | 0.00 | 63 | 1004.6 |
| 20260906054524 | 28 | 127 | 4.8 | 9.7 | 0.00 | 0.00 | 0.00 | 62 | 1004.8 |
| 20260906053018 | 29 | 134 | 3.2 | 9.7 | 0.00 | 0.00 | 0.00 | 61 | 1004.8 |
| 20260906051517 | 29 | 139 | 4.8 | 9.7 | 0.00 | 0.00 | 0.00 | 60 | 1005.0 |
| 20260906050114 | 29 | 134 | 3.2 | 9.7 | 0.00 | 0.00 | 0.00 | 59 | 1005.0 |
| 20260906044501 | 30 | 191 | 1.6 | 9.7 | 0.00 | 0.00 | 0.00 | 57 | 1004.8 |
| 20260906043008 | 30 | 133 | 6.4 | 11.3 | 0.00 | 0.00 | 0.00 | 56 | 1004.8 |
| 20260906041520 | 30 | 133 | 4.8 | 11.3 | 0.00 | 0.00 | 0.00 | 54 | 1004.7 |
| 20260906040001 | 30 | 124 | 9.7 | 19.3 | 0.00 | 0.00 | 0.00 | 53 | 1004.6 |
| 20260906034503 | 28 | 101 | 0.0 | 3.2 | 0.00 | 0.00 | 0.00 | 57 | 1004.5 |
| 20260906033008 | 29 | 96 | 0.0 | 4.8 | 0.00 | 0.00 | 0.00 | 54 | 1004.3 |
| 20260906031521 | 29 | 91 | 0.0 | 3.2 | 0.00 | 0.00 | 0.00 | 53 | 1004.2 |
| 20260906030106 | 30 | 94 | 0.0 | 4.8 | 0.00 | 0.00 | 0.00 | 52 | 1004.1 |
| 20260906024502 | 31 | 90 | 1.6 | 8.0 | 0.00 | 0.00 | 0.00 | 50 | 1004.0 |
| 20260906023008 | 31 | 97 | 1.6 | 4.8 | 0.00 | 0.00 | 0.00 | 50 | 1003.8 |
| 20260906021512 | 31 | 94 | 3.2 | 6.4 | 0.00 | 0.00 | 0.00 | 48 | 1003.5 |
| 20260906014609 | 32 | 101 | 3.2 | 8.0 | 0.00 | 0.00 | 0.00 | 46 | 1003.1 |
| 20260906013005 | 33 | 110 | 3.2 | 9.7 | 0.00 | 0.00 | 0.00 | 44 | 1002.9 |
| 20260906011501 | 33 | 126 | 4.8 | 11.3 | 0.00 | 0.00 | 0.00 | 42 | 1002.7 |
| 20260906010048 | 34 | 120 | 4.8 | 9.7 | 0.00 | 0.00 | 0.00 | 40 | 1002.5 |
| 20260906004559 | 35 | 147 | 4.8 | 12.9 | 0.00 | 0.00 | 0.00 | 39 | 1002.5 |
| 20260906003058 | 35 | 119 | 9.7 | 12.9 | 0.00 | 0.00 | 0.00 | 38 | 1002.4 |
| 20260906001507 | 36 | 96 | 9.7 | 19.3 | 0.00 | 0.00 | 0.00 | 37 | 1002.3 |
| 20260906000108 | 36 | 143 | 8.0 | 22.5 | 0.00 | 0.00 | 0.00 | 37 | 1002.3 |
| 20260905234602 | 36 | 103 | 11.3 | 20.9 | 0.00 | 0.00 | 0.00 | 36 | 1002.1 |
| 20260905233009 | 37 | 98 | 11.3 | 17.7 | 0.00 | 0.00 | 0.00 | 35 | 1002.0 |
| 20260905231511 | 37 | 158 | 9.7 | 20.9 | 0.00 | 0.00 | 0.00 | 35 | 1001.9 |
| 20260905230004 | 37 | 152 | 9.7 | 22.5 | 0.00 | 0.00 | 0.00 | 35 | 1001.9 |
| 20260905224510 | 37 | 170 | 6.4 | 22.5 | 0.00 | 0.00 | 0.00 | 34 | 1001.9 |
| 20260905223010 | 37 | 142 | 6.4 | 19.3 | 0.00 | 0.00 | 0.00 | 34 | 1002.0 |